sensor_id;sensor_type;location;lat;lon;timestamp;pressure;altitude;pressure_sealevel;temperature;humidity
7170;BME280;3626;42.656;23.312;2023-04-23T00:00:00;94517.31;;;6.60;100.00
7170;BME280;3626;42.656;23.312;2023-04-23T00:00:07;94518.13;;;6.60;100.00
7170;BME280;3626;42.656;23.312;2023-04-23T00:00:17;94512.19;;;6.60;100.00
7170;BME280;3626;42.656;23.312;2023-04-23T00:00:23;94519.88;;;6.60;100.00
7170;BME280;3626;42.656;23.312;2023-04-23T00:00:30;94522.44;;;6.60;100.00
7170;BME280;3626;42.656;23.312;2023-04-23T00:00:37;94514.75;;;6.60;100.00
7170;BME280;3626;42.656;23.312;2023-04-23T00:00:45;94519.88;;;6.60;100.00
7170;BME280;3626;42.656;23.312;2023-04-23T00:00:53;94515.56;;;6.60;100.00
7170;BME280;3626;42.656;23.312;2023-04-23T00:01:03;94519.06;;;6.59;100.00
7170;BME280;3626;42.656;23.312;2023-04-23T00:01:10;94519.88;;;6.60;100.00
7170;BME280;3626;42.656;23.312;2023-04-23T00:01:17;94514.88;;;6.58;100.00
7170;BME280;3626;42.656;23.312;2023-04-23T00:01:25;94514.06;;;6.58;100.00
7170;BME280;3626;42.656;23.312;2023-04-23T00:01:33;94519.19;;;6.58;100.00
7170;BME280;3626;42.656;23.312;2023-04-23T00:01:43;94515.84;;;6.57;100.00
7170;BME280;3626;42.656;23.312;2023-04-23T00:01:55;94521.13;;;6.56;100.00
7170;BME280;3626;42.656;23.312;2023-04-23T00:02:03;94519.50;;;6.55;100.00
7170;BME280;3626;42.656;23.312;2023-04-23T00:02:11;94516.09;;;6.54;100.00
7170;BME280;3626;42.656;23.312;2023-04-23T00:02:18;94516.25;;;6.53;100.00
7170;BME280;3626;42.656;23.312;2023-04-23T00:02:25;94518.81;;;6.53;100.00
7170;BME280;3626;42.656;23.312;2023-04-23T00:02:32;94514.66;;;6.51;100.00
7170;BME280;3626;42.656;23.312;2023-04-23T00:02:42;94510.50;;;6.50;100.00
7170;BME280;3626;42.656;23.312;2023-04-23T00:02:51;94518.31;;;6.49;100.00
7170;BME280;3626;42.656;23.312;2023-04-23T00:03:00;94516.69;;;6.48;100.00
7170;BME280;3626;42.656;23.312;2023-04-23T00:03:10;94514.13;;;6.48;100.00
7170;BME280;3626;42.656;23.312;2023-04-23T00:03:20;94514.13;;;6.48;100.00
7170;BME280;3626;42.656;23.312;2023-04-23T00:03:29;94515.91;;;6.47;100.00
7170;BME280;3626;42.656;23.312;2023-04-23T00:03:37;94514.13;;;6.48;100.00
7170;BME280;3626;42.656;23.312;2023-04-23T00:03:43;94507.25;;;6.48;100.00
7170;BME280;3626;42.656;23.312;2023-04-23T00:03:49;94513.19;;;6.49;100.00
7170;BME280;3626;42.656;23.312;2023-04-23T00:03:57;94510.63;;;6.49;100.00
7170;BME280;3626;42.656;23.312;2023-04-23T00:04:06;94512.38;;;6.48;100.00
7170;BME280;3626;42.656;23.312;2023-04-23T00:04:14;94513.34;;;6.47;100.00
7170;BME280;3626;42.656;23.312;2023-04-23T00:04:21;94510.75;;;6.47;100.00
7170;BME280;3626;42.656;23.312;2023-04-23T00:04:29;94513.34;;;6.47;100.00
7170;BME280;3626;42.656;23.312;2023-04-23T00:04:38;94512.38;;;6.48;100.00
7170;BME280;3626;42.656;23.312;2023-04-23T00:04:48;94514.13;;;6.48;100.00
7170;BME280;3626;42.656;23.312;2023-04-23T00:04:56;94510.75;;;6.47;100.00
7170;BME280;3626;42.656;23.312;2023-04-23T00:05:11;94506.59;;;6.46;100.00
7170;BME280;3626;42.656;23.312;2023-04-23T00:05:18;94514.28;;;6.46;100.00
7170;BME280;3626;42.656;23.312;2023-04-23T00:05:26;94514.94;;;6.48;100.00
7170;BME280;3626;42.656;23.312;2023-04-23T00:05:32;94507.25;;;6.48;100.00
7170;BME280;3626;42.656;23.312;2023-04-23T00:05:38;94506.44;;;6.48;100.00
7170;BME280;3626;42.656;23.312;2023-04-23T00:05:46;94507.25;;;6.48;100.00
7170;BME280;3626;42.656;23.312;2023-04-23T00:05:56;94511.41;;;6.49;100.00
7170;BME280;3626;42.656;23.312;2023-04-23T00:06:06;94509.81;;;6.48;100.00
7170;BME280;3626;42.656;23.312;2023-04-23T00:06:13;94512.38;;;6.48;100.00
7170;BME280;3626;42.656;23.312;2023-04-23T00:06:18;94510.63;;;6.49;100.00
7170;BME280;3626;42.656;23.312;2023-04-23T00:06:27;94509.81;;;6.48;100.00
7170;BME280;3626;42.656;23.312;2023-04-23T00:06:35;94508.06;;;6.49;100.00
7170;BME280;3626;42.656;23.312;2023-04-23T00:06:41;94513.06;;;6.50;100.00
7170;BME280;3626;42.656;23.312;2023-04-23T00:06:47;94511.41;;;6.49;100.00
7170;BME280;3626;42.656;23.312;2023-04-23T00:06:53;94506.28;;;6.49;100.00
7170;BME280;3626;42.656;23.312;2023-04-23T00:07:01;94507.13;;;6.50;100.00
7170;BME280;3626;42.656;23.312;2023-04-23T00:07:08;94513.06;;;6.50;100.00
7170;BME280;3626;42.656;23.312;2023-04-23T00:07:14;94513.84;;;6.51;100.00
7170;BME280;3626;42.656;23.312;2023-04-23T00:07:21;94510.50;;;6.50;100.00
7170;BME280;3626;42.656;23.312;2023-04-23T00:07:29;94513.06;;;6.50;100.00
7170;BME280;3626;42.656;23.312;2023-04-23T00:07:36;94508.72;;;6.51;100.00
7170;BME280;3626;42.656;23.312;2023-04-23T00:07:42;94511.28;;;6.51;100.00
7170;BME280;3626;42.656;23.312;2023-04-23T00:07:48;94505.22;;;6.52;100.00
7170;BME280;3626;42.656;23.312;2023-04-23T00:07:57;94511.13;;;6.53;100.00
7170;BME280;3626;42.656;23.312;2023-04-23T00:08:05;94508.56;;;6.53;100.00
7170;BME280;3626;42.656;23.312;2023-04-23T00:08:11;94502.50;;;6.54;100.00
7170;BME280;3626;42.656;23.312;2023-04-23T00:08:18;94510.19;;;6.54;100.00
7170;BME280;3626;42.656;23.312;2023-04-23T00:08:25;94510.06;;;6.55;100.00
7170;BME280;3626;42.656;23.312;2023-04-23T00:08:32;94504.13;;;6.55;100.00
7170;BME280;3626;42.656;23.312;2023-04-23T00:08:38;94507.50;;;6.55;100.00
7170;BME280;3626;42.656;23.312;2023-04-23T00:08:44;94510.84;;;6.56;100.00
7170;BME280;3626;42.656;23.312;2023-04-23T00:08:53;94511.66;;;6.56;100.00
7170;BME280;3626;42.656;23.312;2023-04-23T00:09:00;94513.41;;;6.56;100.00
7170;BME280;3626;42.656;23.312;2023-04-23T00:09:06;94512.47;;;6.57;100.00
7170;BME280;3626;42.656;23.312;2023-04-23T00:09:14;94508.28;;;6.56;100.00
7170;BME280;3626;42.656;23.312;2023-04-23T00:09:22;94511.66;;;6.56;100.00
7170;BME280;3626;42.656;23.312;2023-04-23T00:09:29;94511.66;;;6.56;100.00
7170;BME280;3626;42.656;23.312;2023-04-23T00:09:36;94510.84;;;6.56;100.00
7170;BME280;3626;42.656;23.312;2023-04-23T00:09:42;94510.84;;;6.56;100.00
7170;BME280;3626;42.656;23.312;2023-04-23T00:09:51;94504.13;;;6.55;100.00
7170;BME280;3626;42.656;23.312;2023-04-23T00:09:58;94504.94;;;6.55;100.00
7170;BME280;3626;42.656;23.312;2023-04-23T00:10:06;94509.25;;;6.55;100.00
7170;BME280;3626;42.656;23.312;2023-04-23T00:10:13;94504.13;;;6.55;100.00
7170;BME280;3626;42.656;23.312;2023-04-23T00:10:19;94508.41;;;6.54;100.00
7170;BME280;3626;42.656;23.312;2023-04-23T00:10:26;94506.00;;;6.53;100.00
7170;BME280;3626;42.656;23.312;2023-04-23T00:10:33;94511.94;;;6.53;100.00
7170;BME280;3626;42.656;23.312;2023-04-23T00:10:39;94505.22;;;6.52;100.00
7170;BME280;3626;42.656;23.312;2023-04-23T00:10:45;94501.84;;;6.51;100.00
7170;BME280;3626;42.656;23.312;2023-04-23T00:10:51;94513.69;;;6.53;100.00
7170;BME280;3626;42.656;23.312;2023-04-23T00:10:57;94506.97;;;6.51;100.00
7170;BME280;3626;42.656;23.312;2023-04-23T00:11:05;94510.34;;;6.52;100.00
7170;BME280;3626;42.656;23.312;2023-04-23T00:11:11;94508.72;;;6.51;100.00
7170;BME280;3626;42.656;23.312;2023-04-23T00:11:18;94507.94;;;6.50;100.00
7170;BME280;3626;42.656;23.312;2023-04-23T00:11:24;94506.97;;;6.51;100.00
7170;BME280;3626;42.656;23.312;2023-04-23T00:11:30;94508.72;;;6.51;100.00
7170;BME280;3626;42.656;23.312;2023-04-23T00:11:37;94511.28;;;6.51;100.00
7170;BME280;3626;42.656;23.312;2023-04-23T00:11:43;94507.13;;;6.50;100.00
7170;BME280;3626;42.656;23.312;2023-04-23T00:11:49;94506.28;;;6.49;100.00
7170;BME280;3626;42.656;23.312;2023-04-23T00:11:56;94509.69;;;6.50;100.00
7170;BME280;3626;42.656;23.312;2023-04-23T00:12:03;94512.38;;;6.48;100.00
7170;BME280;3626;42.656;23.312;2023-04-23T00:12:09;94511.56;;;6.48;100.00
7170;BME280;3626;42.656;23.312;2023-04-23T00:12:17;94505.63;;;6.47;100.00
7170;BME280;3626;42.656;23.312;2023-04-23T00:12:23;94506.59;;;6.46;100.00
7170;BME280;3626;42.656;23.312;2023-04-23T00:12:29;94510.75;;;6.47;100.00
7170;BME280;3626;42.656;23.312;2023-04-23T00:12:36;94512.38;;;6.48;100.00
7170;BME280;3626;42.656;23.312;2023-04-23T00:12:44;94511.41;;;6.49;100.00
7170;BME280;3626;42.656;23.312;2023-04-23T00:12:52;94513.19;;;6.49;100.00
7170;BME280;3626;42.656;23.312;2023-04-23T00:12:58;94512.38;;;6.48;100.00
7170;BME280;3626;42.656;23.312;2023-04-23T00:13:07;94512.38;;;6.48;100.00
7170;BME280;3626;42.656;23.312;2023-04-23T00:13:14;94514.94;;;6.48;100.00
7170;BME280;3626;42.656;23.312;2023-04-23T00:13:20;94507.41;;;6.47;100.00
7170;BME280;3626;42.656;23.312;2023-04-23T00:13:27;94510.75;;;6.47;100.00
7170;BME280;3626;42.656;23.312;2023-04-23T00:13:33;94510.75;;;6.47;100.00
7170;BME280;3626;42.656;23.312;2023-04-23T00:13:40;94508.19;;;6.47;100.00
7170;BME280;3626;42.656;23.312;2023-04-23T00:13:47;94509.81;;;6.48;100.00
7170;BME280;3626;42.656;23.312;2023-04-23T00:13:54;94512.38;;;6.48;100.00
7170;BME280;3626;42.656;23.312;2023-04-23T00:14:00;94511.41;;;6.49;100.00
7170;BME280;3626;42.656;23.312;2023-04-23T00:14:06;94507.13;;;6.50;100.00
7170;BME280;3626;42.656;23.312;2023-04-23T00:14:13;94514.81;;;6.50;100.00
7170;BME280;3626;42.656;23.312;2023-04-23T00:14:19;94513.06;;;6.50;100.00
7170;BME280;3626;42.656;23.312;2023-04-23T00:14:25;94507.94;;;6.50;100.00
7170;BME280;3626;42.656;23.312;2023-04-23T00:14:31;94507.78;;;6.52;100.00
7170;BME280;3626;42.656;23.312;2023-04-23T00:14:38;94509.53;;;6.51;100.00
7170;BME280;3626;42.656;23.312;2023-04-23T00:14:44;94511.13;;;6.53;100.00
7170;BME280;3626;42.656;23.312;2023-04-23T00:14:50;94506.00;;;6.53;100.00
7170;BME280;3626;42.656;23.312;2023-04-23T00:14:56;94512.91;;;6.52;100.00
7170;BME280;3626;42.656;23.312;2023-04-23T00:15:05;94512.09;;;6.51;100.00
7170;BME280;3626;42.656;23.312;2023-04-23T00:15:12;94513.06;;;6.50;100.00
7170;BME280;3626;42.656;23.312;2023-04-23T00:15:18;94512.09;;;6.51;100.00
7170;BME280;3626;42.656;23.312;2023-04-23T00:15:26;94516.41;;;6.51;100.00
7170;BME280;3626;42.656;23.312;2023-04-23T00:15:32;94515.63;;;6.50;100.00
7170;BME280;3626;42.656;23.312;2023-04-23T00:15:39;94509.53;;;6.51;100.00
7170;BME280;3626;42.656;23.312;2023-04-23T00:15:45;94520.59;;;6.52;100.00
7170;BME280;3626;42.656;23.312;2023-04-23T00:15:52;94512.09;;;6.51;100.00
7170;BME280;3626;42.656;23.312;2023-04-23T00:15:58;94512.09;;;6.51;100.00
7170;BME280;3626;42.656;23.312;2023-04-23T00:16:05;94516.25;;;6.53;100.00
7170;BME280;3626;42.656;23.312;2023-04-23T00:16:12;94513.69;;;6.53;100.00
7170;BME280;3626;42.656;23.312;2023-04-23T00:16:20;94511.13;;;6.53;100.00
7170;BME280;3626;42.656;23.312;2023-04-23T00:16:26;94511.94;;;6.53;100.00
7170;BME280;3626;42.656;23.312;2023-04-23T00:16:32;94510.19;;;6.54;100.00
7170;BME280;3626;42.656;23.312;2023-04-23T00:16:39;94517.88;;;6.54;100.00
7170;BME280;3626;42.656;23.312;2023-04-23T00:16:45;94512.75;;;6.54;100.00
7170;BME280;3626;42.656;23.312;2023-04-23T00:16:51;94513.69;;;6.53;100.00
7170;BME280;3626;42.656;23.312;2023-04-23T00:16:57;94511.94;;;6.53;100.00
7170;BME280;3626;42.656;23.312;2023-04-23T00:17:03;94511.94;;;6.53;100.00
7170;BME280;3626;42.656;23.312;2023-04-23T00:17:09;94510.19;;;6.54;100.00
7170;BME280;3626;42.656;23.312;2023-04-23T00:17:15;94511.13;;;6.53;100.00
7170;BME280;3626;42.656;23.312;2023-04-23T00:17:20;94517.06;;;6.53;100.00
7170;BME280;3626;42.656;23.312;2023-04-23T00:17:26;94511.13;;;6.53;100.00
7170;BME280;3626;42.656;23.312;2023-04-23T00:17:32;94516.25;;;6.53;100.00
7170;BME280;3626;42.656;23.312;2023-04-23T00:17:38;94506.81;;;6.53;100.00
7170;BME280;3626;42.656;23.312;2023-04-23T00:17:45;94521.38;;;6.53;100.00
7170;BME280;3626;42.656;23.312;2023-04-23T00:17:50;94516.25;;;6.53;100.00
7170;BME280;3626;42.656;23.312;2023-04-23T00:17:56;94516.25;;;6.53;100.00
7170;BME280;3626;42.656;23.312;2023-04-23T00:18:02;94509.53;;;6.51;100.00
7170;BME280;3626;42.656;23.312;2023-04-23T00:18:08;94506.00;;;6.53;100.00
7170;BME280;3626;42.656;23.312;2023-04-23T00:18:14;94507.78;;;6.52;100.00
7170;BME280;3626;42.656;23.312;2023-04-23T00:18:21;94513.06;;;6.50;100.00
7170;BME280;3626;42.656;23.312;2023-04-23T00:18:27;94510.50;;;6.50;100.00
7170;BME280;3626;42.656;23.312;2023-04-23T00:18:33;94513.97;;;6.49;100.00
7170;BME280;3626;42.656;23.312;2023-04-23T00:18:39;94507.25;;;6.48;100.00
7170;BME280;3626;42.656;23.312;2023-04-23T00:18:45;94514.28;;;6.46;100.00
7170;BME280;3626;42.656;23.312;2023-04-23T00:18:53;94511.03;;;6.44;100.00
7170;BME280;3626;42.656;23.312;2023-04-23T00:18:58;94511.19;;;6.43;100.00
7170;BME280;3626;42.656;23.312;2023-04-23T00:19:05;94513.09;;;6.41;100.00
7170;BME280;3626;42.656;23.312;2023-04-23T00:19:11;94515.81;;;6.39;100.00
7170;BME280;3626;42.656;23.312;2023-04-23T00:19:17;94514.19;;;6.38;100.00
7170;BME280;3626;42.656;23.312;2023-04-23T00:19:23;94518.53;;;6.38;100.00
7170;BME280;3626;42.656;23.312;2023-04-23T00:19:28;94509.19;;;6.37;100.00
7170;BME280;3626;42.656;23.312;2023-04-23T00:19:34;94518.00;;;6.34;100.00
7170;BME280;3626;42.656;23.312;2023-04-23T00:19:40;94512.19;;;6.32;100.00
7170;BME280;3626;42.656;23.312;2023-04-23T00:19:46;94514.75;;;6.32;100.00
7170;BME280;3626;42.656;23.312;2023-04-23T00:19:52;94514.75;;;6.32;100.00
7170;BME280;3626;42.656;23.312;2023-04-23T00:19:58;94506.25;;;6.32;100.00
7170;BME280;3626;42.656;23.312;2023-04-23T00:20:05;94514.91;;;6.31;100.00
7170;BME280;3626;42.656;23.312;2023-04-23T00:20:11;94509.09;;;6.29;100.00
7170;BME280;3626;42.656;23.312;2023-04-23T00:20:17;94504.94;;;6.28;100.00
7170;BME280;3626;42.656;23.312;2023-04-23T00:20:23;94514.38;;;6.27;100.00
7170;BME280;3626;42.656;23.312;2023-04-23T00:20:29;94511.81;;;6.27;100.00
7170;BME280;3626;42.656;23.312;2023-04-23T00:20:35;94507.66;;;6.26;100.00
7170;BME280;3626;42.656;23.312;2023-04-23T00:20:41;94513.56;;;6.26;100.00
7170;BME280;3626;42.656;23.312;2023-04-23T00:20:47;94513.56;;;6.26;100.00
7170;BME280;3626;42.656;23.312;2023-04-23T00:20:53;94507.66;;;6.26;100.00
7170;BME280;3626;42.656;23.312;2023-04-23T00:20:58;94504.28;;;6.25;100.00
7170;BME280;3626;42.656;23.312;2023-04-23T00:21:05;94505.09;;;6.26;100.00
7170;BME280;3626;42.656;23.312;2023-04-23T00:21:11;94515.34;;;6.26;100.00
7170;BME280;3626;42.656;23.312;2023-04-23T00:21:17;94508.44;;;6.26;100.00
7170;BME280;3626;42.656;23.312;2023-04-23T00:21:22;94514.38;;;6.27;100.00
7170;BME280;3626;42.656;23.312;2023-04-23T00:21:28;94509.25;;;6.27;100.00
7170;BME280;3626;42.656;23.312;2023-04-23T00:21:34;94513.56;;;6.26;100.00
7170;BME280;3626;42.656;23.312;2023-04-23T00:21:40;94509.25;;;6.27;100.00
7170;BME280;3626;42.656;23.312;2023-04-23T00:21:46;94511.81;;;6.27;100.00
7170;BME280;3626;42.656;23.312;2023-04-23T00:21:51;94514.38;;;6.27;100.00
7170;BME280;3626;42.656;23.312;2023-04-23T00:21:57;94513.56;;;6.26;100.00
7170;BME280;3626;42.656;23.312;2023-04-23T00:22:04;94513.56;;;6.26;100.00
7170;BME280;3626;42.656;23.312;2023-04-23T00:22:10;94510.22;;;6.26;100.00
7170;BME280;3626;42.656;23.312;2023-04-23T00:22:18;94509.41;;;6.25;100.00
7170;BME280;3626;42.656;23.312;2023-04-23T00:22:24;94514.53;;;6.25;100.00
7170;BME280;3626;42.656;23.312;2023-04-23T00:22:30;94511.97;;;6.25;100.00
7170;BME280;3626;42.656;23.312;2023-04-23T00:22:36;94507.66;;;6.26;100.00
7170;BME280;3626;42.656;23.312;2023-04-23T00:22:42;94513.56;;;6.26;100.00
7170;BME280;3626;42.656;23.312;2023-04-23T00:22:48;94505.88;;;6.26;100.00
7170;BME280;3626;42.656;23.312;2023-04-23T00:22:53;94512.78;;;6.26;100.00
7170;BME280;3626;42.656;23.312;2023-04-23T00:22:59;94511.81;;;6.27;100.00
7170;BME280;3626;42.656;23.312;2023-04-23T00:23:05;94508.44;;;6.26;100.00
7170;BME280;3626;42.656;23.312;2023-04-23T00:23:11;94513.56;;;6.26;100.00
7170;BME280;3626;42.656;23.312;2023-04-23T00:23:17;94508.44;;;6.26;100.00
7170;BME280;3626;42.656;23.312;2023-04-23T00:23:26;94516.13;;;6.26;100.00
7170;BME280;3626;42.656;23.312;2023-04-23T00:23:32;94512.78;;;6.26;100.00
7170;BME280;3626;42.656;23.312;2023-04-23T00:23:38;94510.22;;;6.26;100.00
7170;BME280;3626;42.656;23.312;2023-04-23T00:23:44;94505.09;;;6.26;100.00
7170;BME280;3626;42.656;23.312;2023-04-23T00:23:50;94510.22;;;6.26;100.00
7170;BME280;3626;42.656;23.312;2023-04-23T00:23:56;94507.66;;;6.26;100.00
7170;BME280;3626;42.656;23.312;2023-04-23T00:24:02;94513.72;;;6.25;100.00
7170;BME280;3626;42.656;23.312;2023-04-23T00:24:08;94515.50;;;6.24;100.00
7170;BME280;3626;42.656;23.312;2023-04-23T00:24:13;94506.97;;;6.24;100.00
7170;BME280;3626;42.656;23.312;2023-04-23T00:24:19;94508.72;;;6.23;100.00
7170;BME280;3626;42.656;23.312;2023-04-23T00:24:25;94507.13;;;6.22;100.00
7170;BME280;3626;42.656;23.312;2023-04-23T00:24:31;94508.88;;;6.22;100.00
7170;BME280;3626;42.656;23.312;2023-04-23T00:24:38;94508.06;;;6.21;100.00
7170;BME280;3626;42.656;23.312;2023-04-23T00:24:45;94509.69;;;6.22;100.00
7170;BME280;3626;42.656;23.312;2023-04-23T00:24:53;94508.88;;;6.22;100.00
7170;BME280;3626;42.656;23.312;2023-04-23T00:24:58;94511.44;;;6.22;100.00
7170;BME280;3626;42.656;23.312;2023-04-23T00:25:05;94512.41;;;6.21;100.00
7170;BME280;3626;42.656;23.312;2023-04-23T00:25:10;94512.41;;;6.21;100.00
7170;BME280;3626;42.656;23.312;2023-04-23T00:25:16;94509.97;;;6.19;100.00
7170;BME280;3626;42.656;23.312;2023-04-23T00:25:22;94503.91;;;6.20;100.00
7170;BME280;3626;42.656;23.312;2023-04-23T00:25:28;94514.16;;;6.20;100.00
7170;BME280;3626;42.656;23.312;2023-04-23T00:25:34;94506.47;;;6.20;100.00
7170;BME280;3626;42.656;23.312;2023-04-23T00:25:39;94505.63;;;6.20;100.00
7170;BME280;3626;42.656;23.312;2023-04-23T00:25:45;94517.53;;;6.21;100.00
7170;BME280;3626;42.656;23.312;2023-04-23T00:25:51;94511.59;;;6.20;100.00
7170;BME280;3626;42.656;23.312;2023-04-23T00:25:57;94514.16;;;6.20;100.00
7170;BME280;3626;42.656;23.312;2023-04-23T00:26:03;94505.63;;;6.20;100.00
7170;BME280;3626;42.656;23.312;2023-04-23T00:26:09;94509.84;;;6.21;100.00
7170;BME280;3626;42.656;23.312;2023-04-23T00:26:15;94519.13;;;6.22;100.00
7170;BME280;3626;42.656;23.312;2023-04-23T00:26:22;94512.41;;;6.21;100.00
7170;BME280;3626;42.656;23.312;2023-04-23T00:26:28;94508.88;;;6.22;100.00
7170;BME280;3626;42.656;23.312;2023-04-23T00:26:34;94513.19;;;6.21;100.00
7170;BME280;3626;42.656;23.312;2023-04-23T00:26:40;94508.88;;;6.22;100.00
7170;BME280;3626;42.656;23.312;2023-04-23T00:26:46;94511.44;;;6.22;100.00
7170;BME280;3626;42.656;23.312;2023-04-23T00:26:51;94507.28;;;6.21;100.00
7170;BME280;3626;42.656;23.312;2023-04-23T00:26:58;94508.88;;;6.22;100.00
7170;BME280;3626;42.656;23.312;2023-04-23T00:27:03;94512.41;;;6.21;100.00
7170;BME280;3626;42.656;23.312;2023-04-23T00:27:09;94506.31;;;6.22;100.00
7170;BME280;3626;42.656;23.312;2023-04-23T00:27:15;94512.41;;;6.21;100.00
7170;BME280;3626;42.656;23.312;2023-04-23T00:27:22;94507.41;;;6.19;100.00
7170;BME280;3626;42.656;23.312;2023-04-23T00:27:28;94517.53;;;6.21;100.00
7170;BME280;3626;42.656;23.312;2023-04-23T00:27:35;94510.75;;;6.20;100.00
7170;BME280;3626;42.656;23.312;2023-04-23T00:27:41;94506.47;;;6.20;100.00
7170;BME280;3626;42.656;23.312;2023-04-23T00:27:46;94510.75;;;6.20;100.00
7170;BME280;3626;42.656;23.312;2023-04-23T00:27:54;94506.47;;;6.20;100.00
7170;BME280;3626;42.656;23.312;2023-04-23T00:27:59;94503.06;;;6.20;100.00
7170;BME280;3626;42.656;23.312;2023-04-23T00:28:07;94509.16;;;6.19;100.00
7170;BME280;3626;42.656;23.312;2023-04-23T00:28:13;94501.47;;;6.19;100.00
7170;BME280;3626;42.656;23.312;2023-04-23T00:28:18;94506.59;;;6.19;100.00
7170;BME280;3626;42.656;23.312;2023-04-23T00:28:24;94503.22;;;6.18;100.00
7170;BME280;3626;42.656;23.312;2023-04-23T00:28:30;94504.84;;;6.19;100.00
7170;BME280;3626;42.656;23.312;2023-04-23T00:28:36;94503.06;;;6.20;100.00
7170;BME280;3626;42.656;23.312;2023-04-23T00:28:42;94504.84;;;6.19;100.00
7170;BME280;3626;42.656;23.312;2023-04-23T00:28:47;94504.03;;;6.19;100.00
7170;BME280;3626;42.656;23.312;2023-04-23T00:28:53;94506.59;;;6.19;100.00
7170;BME280;3626;42.656;23.312;2023-04-23T00:29:01;94509.16;;;6.19;100.00
7170;BME280;3626;42.656;23.312;2023-04-23T00:29:07;94503.22;;;6.18;100.00
7170;BME280;3626;42.656;23.312;2023-04-23T00:29:13;94504.84;;;6.19;100.00
7170;BME280;3626;42.656;23.312;2023-04-23T00:29:20;94512.66;;;6.18;100.00
7170;BME280;3626;42.656;23.312;2023-04-23T00:29:26;94507.69;;;6.16;100.00
7170;BME280;3626;42.656;23.312;2023-04-23T00:29:32;94510.25;;;6.16;100.00
7170;BME280;3626;42.656;23.312;2023-04-23T00:29:38;94512.81;;;6.16;100.00
7170;BME280;3626;42.656;23.312;2023-04-23T00:29:43;94509.44;;;6.16;100.00
7170;BME280;3626;42.656;23.312;2023-04-23T00:29:50;94503.50;;;6.15;100.00
7170;BME280;3626;42.656;23.312;2023-04-23T00:29:56;94506.06;;;6.15;100.00
7170;BME280;3626;42.656;23.312;2023-04-23T00:30:02;94509.59;;;6.14;100.00
7170;BME280;3626;42.656;23.312;2023-04-23T00:30:08;94511.34;;;6.14;100.00
7170;BME280;3626;42.656;23.312;2023-04-23T00:30:14;94513.09;;;6.13;100.00
7170;BME280;3626;42.656;23.312;2023-04-23T00:30:21;94504.59;;;6.13;100.00
7170;BME280;3626;42.656;23.312;2023-04-23T00:30:28;94506.38;;;6.12;100.00
7170;BME280;3626;42.656;23.312;2023-04-23T00:30:33;94510.69;;;6.12;100.00
7170;BME280;3626;42.656;23.312;2023-04-23T00:30:39;94506.50;;;6.11;100.00
7170;BME280;3626;42.656;23.312;2023-04-23T00:30:45;94513.38;;;6.10;100.00
7170;BME280;3626;42.656;23.312;2023-04-23T00:30:51;94508.25;;;6.10;100.00
7170;BME280;3626;42.656;23.312;2023-04-23T00:30:57;94503.94;;;6.11;100.00
7170;BME280;3626;42.656;23.312;2023-04-23T00:31:02;94503.13;;;6.10;100.00
7170;BME280;3626;42.656;23.312;2023-04-23T00:31:08;94510.81;;;6.10;100.00
7170;BME280;3626;42.656;23.312;2023-04-23T00:31:14;94504.88;;;6.10;100.00
7170;BME280;3626;42.656;23.312;2023-04-23T00:31:20;94509.84;;;6.11;100.00
7170;BME280;3626;42.656;23.312;2023-04-23T00:31:27;94508.13;;;6.12;100.00
7170;BME280;3626;42.656;23.312;2023-04-23T00:31:33;94501.38;;;6.11;100.00
7170;BME280;3626;42.656;23.312;2023-04-23T00:31:39;94503.00;;;6.12;100.00
7170;BME280;3626;42.656;23.312;2023-04-23T00:31:44;94508.78;;;6.14;100.00
7170;BME280;3626;42.656;23.312;2023-04-23T00:31:50;94507.97;;;6.13;100.00
7170;BME280;3626;42.656;23.312;2023-04-23T00:31:56;94504.47;;;6.14;100.00
7170;BME280;3626;42.656;23.312;2023-04-23T00:32:02;94506.22;;;6.14;100.00
7170;BME280;3626;42.656;23.312;2023-04-23T00:32:09;94504.47;;;6.14;100.00
7170;BME280;3626;42.656;23.312;2023-04-23T00:32:15;94506.22;;;6.14;100.00
7170;BME280;3626;42.656;23.312;2023-04-23T00:32:20;94510.38;;;6.15;100.00
7170;BME280;3626;42.656;23.312;2023-04-23T00:32:27;94509.59;;;6.14;100.00
7170;BME280;3626;42.656;23.312;2023-04-23T00:32:32;94507.97;;;6.13;100.00
7170;BME280;3626;42.656;23.312;2023-04-23T00:32:38;94503.81;;;6.12;100.00
7170;BME280;3626;42.656;23.312;2023-04-23T00:32:44;94508.13;;;6.12;100.00
7170;BME280;3626;42.656;23.312;2023-04-23T00:32:50;94508.13;;;6.12;100.00
7170;BME280;3626;42.656;23.312;2023-04-23T00:32:56;94501.38;;;6.11;100.00
7170;BME280;3626;42.656;23.312;2023-04-23T00:33:02;94509.84;;;6.11;100.00
7170;BME280;3626;42.656;23.312;2023-04-23T00:33:08;94503.00;;;6.12;100.00
7170;BME280;3626;42.656;23.312;2023-04-23T00:33:13;94510.69;;;6.12;100.00
7170;BME280;3626;42.656;23.312;2023-04-23T00:33:20;94512.41;;;6.11;100.00
7170;BME280;3626;42.656;23.312;2023-04-23T00:33:25;94507.28;;;6.11;100.00
7170;BME280;3626;42.656;23.312;2023-04-23T00:33:31;94503.94;;;6.11;100.00
7170;BME280;3626;42.656;23.312;2023-04-23T00:33:38;94506.50;;;6.11;100.00
7170;BME280;3626;42.656;23.312;2023-04-23T00:33:44;94512.56;;;6.10;100.00
7170;BME280;3626;42.656;23.312;2023-04-23T00:33:49;94504.88;;;6.10;100.00
7170;BME280;3626;42.656;23.312;2023-04-23T00:33:55;94502.31;;;6.10;100.00
7170;BME280;3626;42.656;23.312;2023-04-23T00:34:02;94510.00;;;6.10;100.00
7170;BME280;3626;42.656;23.312;2023-04-23T00:34:07;94511.63;;;6.11;100.00
7170;BME280;3626;42.656;23.312;2023-04-23T00:34:13;94510.81;;;6.10;100.00
7170;BME280;3626;42.656;23.312;2023-04-23T00:34:19;94505.69;;;6.10;100.00
7170;BME280;3626;42.656;23.312;2023-04-23T00:34:25;94506.50;;;6.11;100.00
7170;BME280;3626;42.656;23.312;2023-04-23T00:34:31;94513.38;;;6.10;100.00
7170;BME280;3626;42.656;23.312;2023-04-23T00:34:37;94507.28;;;6.11;100.00
7170;BME280;3626;42.656;23.312;2023-04-23T00:34:43;94504.88;;;6.10;100.00
7170;BME280;3626;42.656;23.312;2023-04-23T00:34:49;94507.44;;;6.10;100.00
7170;BME280;3626;42.656;23.312;2023-04-23T00:34:55;94506.50;;;6.11;100.00
7170;BME280;3626;42.656;23.312;2023-04-23T00:35:01;94506.66;;;6.09;100.00
7170;BME280;3626;42.656;23.312;2023-04-23T00:35:07;94504.09;;;6.09;100.00
7170;BME280;3626;42.656;23.312;2023-04-23T00:35:14;94510.00;;;6.10;100.00